Time;durP1;ratioP1;P1;durP2;ratioP2;P2;SDS_P1;SDS_P2;PMS_P1;PMS_P2;Temp;Humidity;BMP_temperature;BMP_pressure;BME280_temperature;BME280_humidity;BME280_pressure;Samples;Min_cycle;Max_cycle;Signal;HPM_P1;HPM_P2
2022/08/03 00:01:26;;;;;;;13.13;10.70;;;18.10;99.90;;;;;;5108988;28;20012;-75
2022/08/03 00:03:52;;;;;;;12.73;10.47;;;18.10;99.90;;;;;;5108992;28;20027;-75
2022/08/03 00:06:18;;;;;;;13.90;10.53;;;18.10;99.90;;;;;;5108921;28;20020;-75
2022/08/03 00:08:43;;;;;;;16.37;10.73;;;18.10;99.90;;;;;;5110458;28;20027;-76
2022/08/03 00:11:09;;;;;;;14.27;10.37;;;18.00;99.90;;;;;;5108863;28;20032;-76
2022/08/03 00:13:35;;;;;;;12.47;10.60;;;18.00;99.90;;;;;;5108907;28;20036;-76
2022/08/03 00:16:00;;;;;;;12.50;9.67;;;18.00;99.90;;;;;;5110272;28;20459;-76
2022/08/03 00:18:26;;;;;;;12.53;9.80;;;18.00;99.90;;;;;;5110175;28;20039;-75
2022/08/03 00:20:51;;;;;;;18.57;10.40;;;18.00;99.90;;;;;;5108736;28;20041;-76
2022/08/03 00:23:17;;;;;;;13.87;9.57;;;18.10;99.90;;;;;;5110241;28;20502;-75
2022/08/03 00:25:43;;;;;;;13.23;10.27;;;18.10;99.90;;;;;;5110103;28;20442;-75
2022/08/03 00:28:08;;;;;;;13.37;10.13;;;18.00;99.90;;;;;;5110042;28;20040;-77
2022/08/03 00:30:34;;;;;;;14.27;9.13;;;18.00;99.90;;;;;;5110043;28;20049;-75
2022/08/03 00:33:01;;;;;;;10.90;9.57;;;18.00;99.90;;;;;;5110058;28;20038;-75
2022/08/03 00:35:27;;;;;;;12.50;9.68;;;18.00;99.90;;;;;;5109987;28;20032;-76
2022/08/03 00:37:52;;;;;;;12.93;9.43;;;18.00;99.90;;;;;;5108910;28;20435;-76
2022/08/03 00:40:19;;;;;;;13.80;9.83;;;18.10;99.90;;;;;;5110013;28;20031;-76
2022/08/03 00:43:01;;;;;;;12.63;9.57;;;18.00;99.90;;;;;;5108587;28;20467;-76
2022/08/03 00:45:32;;;;;;;13.77;9.82;;;18.00;99.90;;;;;;5109918;28;20027;-76
2022/08/03 00:47:59;;;;;;;15.93;10.40;;;18.00;99.90;;;;;;5113663;28;20111;-76
2022/08/03 00:50:25;;;;;;;;;;;18.00;99.90;;;;;;5114106;28;20557;-76
2022/08/03 00:52:52;;;;;;;13.18;9.30;;;18.00;99.90;;;;;;5113471;28;19918;-76
2022/08/03 00:55:18;;;;;;;11.95;9.68;;;17.90;99.90;;;;;;5113539;28;20095;-76
2022/08/03 00:57:44;;;;;;;14.37;11.07;;;18.00;99.90;;;;;;5112242;28;20051;-76
2022/08/03 01:00:11;;;;;;;12.65;10.23;;;18.00;99.90;;;;;;5113633;28;20089;-76
2022/08/03 01:02:38;;;;;;;12.30;10.57;;;18.00;99.90;;;;;;5112258;28;20072;-76
2022/08/03 01:05:04;;;;;;;14.93;10.57;;;18.00;99.90;;;;;;5112209;28;20035;-76
2022/08/03 01:08:07;;;;;;;12.57;10.50;;;18.00;99.90;;;;;;5113426;28;20488;-76
2022/08/03 01:10:39;;;;;;;11.75;10.27;;;17.90;99.90;;;;;;5113269;28;20434;-76
2022/08/03 01:13:24;;;;;;;11.25;9.32;;;17.90;99.90;;;;;;5113500;28;20085;-76
2022/08/03 01:15:57;;;;;;;11.90;9.75;;;17.90;99.90;;;;;;5111821;28;20032;-76
2022/08/03 01:18:48;;;;;;;10.60;9.48;;;17.90;99.90;;;;;;5111635;28;20028;-76
2022/08/03 01:21:27;;;;;;;11.35;9.40;;;17.90;99.90;;;;;;5113170;28;20020;-76
2022/08/03 01:24:13;;;;;;;11.43;9.82;;;17.90;99.90;;;;;;5113219;28;20481;-76
2022/08/03 01:27:04;;;;;;;12.75;9.88;;;17.90;99.90;;;;;;5112981;28;20503;-76
2022/08/03 01:29:49;;;;;;;11.93;9.70;;;17.90;99.90;;;;;;5108292;28;20081;-76
2022/08/03 01:32:19;;;;;;;14.10;9.80;;;17.90;99.90;;;;;;5111403;28;20395;-76
2022/08/03 01:34:50;;;;;;;12.70;10.10;;;17.90;99.90;;;;;;5113189;28;20344;-76
2022/08/03 01:37:23;;;;;;;12.70;10.10;;;17.90;99.90;;;;;;5112767;28;20024;-76
2022/08/03 01:39:54;;;;;;;11.88;10.23;;;17.90;99.90;;;;;;5112416;28;20039;-76
2022/08/03 01:42:21;;;;;;;13.45;10.18;;;17.90;99.90;;;;;;5111353;28;20496;-76
2022/08/03 01:44:49;;;;;;;11.25;9.65;;;17.90;99.90;;;;;;5112928;28;20034;-76
2022/08/03 01:47:18;;;;;;;12.80;9.85;;;17.90;99.90;;;;;;5112806;28;20023;-75
2022/08/03 01:49:44;;;;;;;11.95;9.77;;;18.00;99.90;;;;;;5111107;28;20131;-75
2022/08/03 01:52:12;;;;;;;12.90;9.90;;;17.90;99.90;;;;;;5112435;28;20111;-76
2022/08/03 01:54:42;;;;;;;13.23;9.90;;;17.90;99.90;;;;;;5110912;28;20058;-76
2022/08/03 01:57:09;;;;;;;11.00;9.25;;;17.90;99.90;;;;;;5111502;28;20023;-76
2022/08/03 01:59:36;;;;;;;12.20;9.95;;;17.90;99.90;;;;;;5110579;28;20039;-76
2022/08/03 02:02:03;;;;;;;;;;;17.90;99.90;;;;;;5111233;28;20024;-76
2022/08/03 02:04:29;;;;;;;11.70;9.25;;;17.90;99.90;;;;;;5112159;28;19911;-76
2022/08/03 02:06:56;;;;;;;11.43;10.23;;;17.90;99.90;;;;;;5110658;28;20119;-76
2022/08/03 02:09:23;;;;;;;13.85;10.80;;;17.90;99.90;;;;;;5110789;28;20521;-76
2022/08/03 02:11:50;;;;;;;16.23;10.48;;;17.90;99.90;;;;;;5111970;28;20511;-76
2022/08/03 02:14:17;;;;;;;;;;;17.90;99.90;;;;;;5112791;28;20487;-76
2022/08/03 02:16:44;;;;;;;13.52;9.93;;;17.90;99.90;;;;;;5112270;28;19998;-76
2022/08/03 02:19:10;;;;;;;14.82;10.43;;;17.80;99.90;;;;;;5112058;28;20486;-76
2022/08/03 02:21:37;;;;;;;15.35;10.50;;;17.90;99.90;;;;;;5110386;28;20055;-76
2022/08/03 02:24:04;;;;;;;11.90;10.23;;;17.80;99.90;;;;;;5111920;28;20039;-76
2022/08/03 02:26:30;;;;;;;16.30;11.55;;;17.80;99.90;;;;;;5110293;28;20418;-76
2022/08/03 02:29:02;;;;;;;11.82;10.02;;;17.70;99.90;;;;;;5111827;28;20035;-76
2022/08/03 02:31:30;;;;;;;13.23;10.55;;;17.80;99.90;;;;;;5111705;28;20025;-76
2022/08/03 02:34:03;;;;;;;15.00;11.10;;;17.80;99.90;;;;;;5111803;28;20474;-76
2022/08/03 02:36:34;;;;;;;13.32;10.77;;;17.70;99.90;;;;;;5111737;28;20028;-76
2022/08/03 02:39:01;;;;;;;14.88;10.55;;;17.80;99.90;;;;;;5111975;28;20035;-76
2022/08/03 02:41:32;;;;;;;14.55;11.05;;;17.80;99.90;;;;;;5111580;28;20015;-76
2022/08/03 02:44:02;;;;;;;14.50;12.00;;;17.80;99.90;;;;;;5111584;28;20039;-76
2022/08/03 02:46:31;;;;;;;14.48;10.30;;;17.80;99.90;;;;;;5111243;28;20016;-75
2022/08/03 02:48:59;;;;;;;13.48;11.15;;;17.80;99.90;;;;;;5111496;28;20031;-76
2022/08/03 02:51:28;;;;;;;14.07;11.48;;;17.80;99.90;;;;;;5109848;28;20027;-76
2022/08/03 02:53:56;;;;;;;12.45;10.23;;;17.80;99.90;;;;;;5111320;28;20510;-76
2022/08/03 02:56:24;;;;;;;15.68;11.20;;;17.70;99.90;;;;;;5109749;28;20608;-76
2022/08/03 02:58:51;;;;;;;13.77;10.63;;;17.70;99.90;;;;;;5109472;28;20040;-76
2022/08/03 03:01:19;;;;;;;;;;;17.70;99.90;;;;;;5110272;28;20088;-76
2022/08/03 03:03:44;;;;;;;13.05;10.00;;;17.70;99.90;;;;;;5111417;28;19915;-76
2022/08/03 03:06:12;;;;;;;14.73;10.97;;;17.70;99.90;;;;;;5111160;28;20030;-76
2022/08/03 03:08:38;;;;;;;14.65;10.98;;;17.70;99.90;;;;;;5109449;28;20039;-76
2022/08/03 03:11:06;;;;;;;16.30;12.30;;;17.80;99.90;;;;;;5110902;28;20417;-76
2022/08/03 03:13:33;;;;;;;13.15;10.75;;;17.80;99.90;;;;;;5111048;28;20036;-76
2022/08/03 03:16:03;;;;;;;13.95;11.60;;;17.70;99.90;;;;;;5110789;28;20106;-76
2022/08/03 03:18:31;;;;;;;14.02;10.82;;;17.70;99.90;;;;;;5110923;28;20101;-76
2022/08/03 03:20:59;;;;;;;13.50;9.95;;;17.70;99.90;;;;;;5110799;28;20028;-76
2022/08/03 03:23:26;;;;;;;15.52;10.48;;;17.70;99.90;;;;;;5111006;28;20076;-76
2022/08/03 03:25:54;;;;;;;15.80;11.15;;;17.70;99.90;;;;;;5110813;28;20024;-76
2022/08/03 03:28:22;;;;;;;14.93;11.23;;;17.70;99.90;;;;;;5110493;28;20429;-75
2022/08/03 03:30:48;;;;;;;14.48;10.70;;;17.90;99.90;;;;;;5109353;28;20403;-76
2022/08/03 03:33:13;;;;;;;16.00;12.40;;;17.80;99.90;;;;;;5110592;28;20032;-75
2022/08/03 03:35:41;;;;;;;14.53;11.00;;;17.90;99.90;;;;;;5110660;28;20255;-76
2022/08/03 03:38:07;;;;;;;13.52;10.85;;;17.90;99.90;;;;;;5109178;28;20061;-76
2022/08/03 03:40:37;;;;;;;15.67;11.07;;;17.90;99.90;;;;;;5110647;28;20535;-76
2022/08/03 03:43:07;;;;;;;14.93;10.68;;;17.90;99.90;;;;;;5110702;28;20433;-76
2022/08/03 03:45:34;;;;;;;14.40;11.27;;;17.90;99.90;;;;;;5110655;28;20089;-77
2022/08/03 03:48:04;;;;;;;14.63;10.48;;;17.90;99.90;;;;;;5110749;28;20028;-77
2022/08/03 03:50:32;;;;;;;15.63;9.95;;;17.90;99.90;;;;;;5110647;28;20074;-77
2022/08/03 03:52:57;;;;;;;13.48;10.50;;;17.90;99.90;;;;;;5110631;28;20411;-77
2022/08/03 03:55:23;;;;;;;10.63;9.33;;;17.90;99.90;;;;;;5108995;28;20040;-77
2022/08/03 03:57:49;;;;;;;12.33;10.53;;;17.90;99.90;;;;;;5110411;28;20098;-77
2022/08/03 04:00:16;;;;;;;12.03;9.77;;;18.00;99.90;;;;;;5110568;28;20658;-77
2022/08/03 04:02:41;;;;;;;11.05;9.07;;;17.90;99.90;;;;;;5110555;28;20031;-77
2022/08/03 04:11:24;;;;;;;13.23;9.98;;;18.00;99.90;;;;;;5110297;28;20521;-76
2022/08/03 04:14:11;;;;;;;14.95;10.13;;;18.00;99.90;;;;;;5110752;28;20034;-76
2022/08/03 04:16:45;;;;;;;13.07;10.07;;;18.00;99.90;;;;;;5108638;28;20019;-75
2022/08/03 04:19:32;;;;;;;13.55;11.27;;;18.10;99.90;;;;;;5108991;28;20368;-76
2022/08/03 04:21:59;;;;;;;;;;;18.00;99.90;;;;;;5113278;28;20019;-76
2022/08/03 04:24:33;;;;;;;11.95;10.27;;;18.10;99.90;;;;;;5114550;28;19911;-77
2022/08/03 04:27:03;;;;;;;14.38;10.27;;;18.10;99.90;;;;;;5112998;28;20026;-77
2022/08/03 04:29:32;;;;;;;12.15;9.57;;;18.00;99.90;;;;;;5114391;28;20046;-77
2022/08/03 04:31:59;;;;;;;12.15;9.50;;;18.20;99.90;;;;;;5113860;28;20490;-77
2022/08/03 04:34:25;;;;;;;10.52;9.35;;;18.10;99.90;;;;;;5114369;28;20054;-77
2022/08/03 04:36:55;;;;;;;10.77;8.77;;;18.10;99.90;;;;;;5112520;28;20475;-77
2022/08/03 04:39:26;;;;;;;13.70;9.00;;;18.20;99.90;;;;;;5112490;28;20078;-76
2022/08/03 04:41:55;;;;;;;12.18;8.90;;;18.10;99.90;;;;;;5113545;28;20028;-77
2022/08/03 04:44:24;;;;;;;13.40;9.60;;;18.10;99.90;;;;;;5112229;28;20034;-77
2022/08/03 04:46:50;;;;;;;10.73;9.07;;;18.10;99.90;;;;;;5113807;27;20031;-77
2022/08/03 04:49:17;;;;;;;11.60;9.10;;;18.00;99.90;;;;;;5113804;28;20035;-76
2022/08/03 04:51:43;;;;;;;13.75;9.38;;;18.20;99.90;;;;;;5113376;28;20031;-77
2022/08/03 04:54:12;;;;;;;10.50;9.02;;;18.10;99.90;;;;;;5111847;28;20048;-76
2022/08/03 04:56:42;;;;;;;10.90;8.85;;;18.30;99.90;;;;;;5111891;28;20091;-76
2022/08/03 04:59:11;;;;;;;15.40;9.25;;;18.30;99.90;;;;;;5111756;28;20428;-76
2022/08/03 05:01:38;;;;;;;11.32;9.07;;;18.30;99.90;;;;;;5113359;28;20028;-76
2022/08/03 05:04:04;;;;;;;10.93;9.02;;;18.30;99.90;;;;;;5111973;28;20027;-76
2022/08/03 05:06:29;;;;;;;10.37;9.03;;;18.40;99.90;;;;;;5113236;28;20024;-76
2022/08/03 05:08:55;;;;;;;12.17;8.73;;;18.40;99.90;;;;;;5113065;28;20042;-76
2022/08/03 05:11:20;;;;;;;10.83;8.83;;;18.50;99.90;;;;;;5113242;28;20051;-76
2022/08/03 05:13:47;;;;;;;11.90;8.97;;;18.60;99.90;;;;;;5113772;28;20035;-76
2022/08/03 05:16:13;;;;;;;11.95;8.85;;;18.60;99.90;;;;;;5111583;28;20277;-77
2022/08/03 05:18:42;;;;;;;;;;;18.70;99.90;;;;;;5112117;28;20063;-77
2022/08/03 05:21:09;;;;;;;13.85;9.30;;;18.70;99.90;;;;;;5111525;28;19911;-77
2022/08/03 05:23:35;;;;;;;10.38;8.52;;;18.70;99.90;;;;;;5113238;28;20023;-77
2022/08/03 05:26:00;;;;;;;10.90;9.13;;;18.80;99.90;;;;;;5113072;28;20077;-78
2022/08/03 05:28:26;;;;;;;10.97;9.80;;;18.80;99.90;;;;;;5111591;28;20106;-76
2022/08/03 05:30:52;;;;;;;10.27;8.37;;;18.90;99.90;;;;;;5113036;28;20092;-77
2022/08/03 05:33:17;;;;;;;9.93;8.17;;;18.90;99.90;;;;;;5112592;28;20036;-77
2022/08/03 05:35:43;;;;;;;12.27;8.90;;;19.00;99.90;;;;;;5112931;27;20504;-76
2022/08/03 05:38:09;;;;;;;9.90;8.50;;;19.00;99.90;;;;;;5112595;28;20035;-77
2022/08/03 05:40:34;;;;;;;12.10;8.53;;;19.00;99.90;;;;;;5111109;28;20115;-77
2022/08/03 05:43:01;;;;;;;14.23;9.80;;;19.00;99.90;;;;;;5112500;28;20481;-77
2022/08/03 05:45:26;;;;;;;12.23;9.02;;;19.10;99.90;;;;;;5112538;28;20023;-77
2022/08/03 05:47:52;;;;;;;16.30;10.23;;;19.10;99.90;;;;;;5112692;28;20039;-78
2022/08/03 05:50:19;;;;;;;9.60;8.60;;;19.10;99.90;;;;;;5112707;28;20011;-77
2022/08/03 05:52:44;;;;;;;10.55;9.00;;;19.10;99.90;;;;;;5112344;28;20542;-76
2022/08/03 05:55:11;;;;;;;11.93;8.80;;;19.10;99.90;;;;;;5111084;28;20176;-77
2022/08/03 05:57:37;;;;;;;12.13;10.43;;;19.20;99.90;;;;;;5112600;28;20063;-77
2022/08/03 06:00:05;;;;;;;9.80;8.80;;;19.20;99.90;;;;;;5112482;28;20501;-76
2022/08/03 06:02:31;;;;;;;11.40;8.63;;;19.30;99.90;;;;;;5110852;28;20039;-76
2022/08/03 06:04:57;;;;;;;13.07;9.17;;;19.40;99.90;;;;;;5112658;28;20028;-77
2022/08/03 06:07:22;;;;;;;12.37;9.40;;;19.40;99.90;;;;;;5112376;28;20031;-77
2022/08/03 06:09:48;;;;;;;13.20;9.53;;;19.40;99.90;;;;;;5112165;28;20372;-77
2022/08/03 06:12:14;;;;;;;11.20;9.52;;;19.40;99.90;;;;;;5112335;28;20026;-77
2022/08/03 06:14:40;;;;;;;13.00;9.30;;;19.30;99.90;;;;;;5112539;28;20092;-76
2022/08/03 06:17:06;;;;;;;11.35;8.48;;;19.40;99.90;;;;;;5112014;28;20062;-77
2022/08/03 06:19:31;;;;;;;10.17;9.13;;;19.50;99.90;;;;;;5112687;28;20063;-78
2022/08/03 06:21:57;;;;;;;12.43;8.77;;;19.60;99.90;;;;;;5111696;28;20073;-76
2022/08/03 06:24:22;;;;;;;11.47;8.60;;;19.80;99.90;;;;;;5112397;28;20042;-77
2022/08/03 06:26:48;;;;;;;11.33;8.63;;;20.00;99.90;;;;;;5110531;28;20119;-77
2022/08/03 06:29:14;;;;;;;9.73;8.63;;;20.10;99.90;;;;;;5112222;28;20027;-77
2022/08/03 06:31:39;;;;;;;10.43;8.67;;;20.20;99.90;;;;;;5110302;28;20024;-76
2022/08/03 06:34:05;;;;;;;11.63;8.63;;;20.30;99.90;;;;;;5112061;28;20035;-77
2022/08/03 06:36:31;;;;;;;15.85;8.43;;;20.40;99.90;;;;;;5111844;28;20506;-76
2022/08/03 06:38:58;;;;;;;10.20;9.05;;;20.50;99.90;;;;;;5111621;28;20036;-76
2022/08/03 06:41:24;;;;;;;11.02;8.20;;;20.60;99.90;;;;;;5110209;28;20027;-78
2022/08/03 06:43:50;;;;;;;9.73;8.57;;;20.60;99.90;;;;;;5111041;28;20509;-78
2022/08/03 06:46:15;;;;;;;10.20;9.10;;;20.70;99.90;;;;;;5111605;28;20020;-78
2022/08/03 06:48:41;;;;;;;12.67;9.33;;;20.70;99.90;;;;;;5111817;28;20043;-77
2022/08/03 06:51:07;;;;;;;11.53;8.47;;;20.80;99.90;;;;;;5111465;28;20027;-76
2022/08/03 06:53:32;;;;;;;10.37;8.83;;;20.80;99.90;;;;;;5110223;28;20046;-76
2022/08/03 06:55:58;;;;;;;10.17;8.43;;;20.90;99.90;;;;;;5109831;28;20272;-76
2022/08/03 06:58:24;;;;;;;11.90;8.93;;;20.90;99.90;;;;;;5110042;28;20038;-77
2022/08/03 07:00:49;;;;;;;11.77;8.90;;;21.00;99.90;;;;;;5111491;28;20073;-77
2022/08/03 07:03:15;;;;;;;9.80;8.57;;;21.10;99.90;;;;;;5111282;28;20035;-76
2022/08/03 07:05:47;;;;;;;10.20;8.25;;;21.10;99.90;;;;;;5112247;28;20023;-77
2022/08/03 07:08:13;;;;;;;9.75;8.43;;;21.20;99.90;;;;;;5109335;28;20035;-77
2022/08/03 07:10:39;;;;;;;10.63;8.65;;;21.30;99.90;;;;;;5109844;28;20030;-77
2022/08/03 07:13:05;;;;;;;11.17;9.00;;;21.40;99.90;;;;;;5111154;28;20078;-77
2022/08/03 07:15:30;;;;;;;10.37;8.17;;;21.50;99.90;;;;;;5110939;28;20027;-77
2022/08/03 07:17:56;;;;;;;9.83;8.83;;;21.70;99.90;;;;;;5110774;28;20024;-77
2022/08/03 07:20:22;;;;;;;10.67;8.73;;;21.70;99.90;;;;;;5110827;28;20023;-77
2022/08/03 07:22:47;;;;;;;12.47;8.67;;;21.80;99.90;;;;;;5110846;28;20062;-77
2022/08/03 07:25:14;;;;;;;9.03;8.13;;;22.00;99.90;;;;;;5110823;28;20135;-77
2022/08/03 07:27:43;;;;;;;13.05;8.98;;;22.00;99.90;;;;;;5110615;28;20040;-78
2022/08/03 07:30:09;;;;;;;12.45;8.57;;;21.90;99.90;;;;;;5110653;28;20110;-77
2022/08/03 07:32:35;;;;;;;9.82;8.68;;;22.00;99.90;;;;;;5110843;28;20114;-77
2022/08/03 07:35:01;;;;;;;9.70;8.57;;;22.00;99.90;;;;;;5110740;28;20093;-77
2022/08/03 07:37:28;;;;;;;12.60;8.95;;;22.00;99.90;;;;;;5109702;28;20027;-78
2022/08/03 07:39:53;;;;;;;;;;;22.10;99.90;;;;;;5109738;28;20077;-78
2022/08/03 07:42:19;;;;;;;10.18;8.23;;;22.30;99.90;;;;;;5110999;28;20472;-78
2022/08/03 07:44:44;;;;;;;13.67;8.93;;;22.30;99.90;;;;;;5111235;28;20030;-78
2022/08/03 07:47:10;;;;;;;10.40;8.43;;;22.40;99.90;;;;;;5110734;28;20031;-77
2022/08/03 07:49:40;;;;;;;12.03;9.17;;;22.40;99.90;;;;;;5110461;28;20505;-77
2022/08/03 07:54:50;;;;;;;12.90;8.40;;;22.60;99.90;;;;;;5110692;28;20106;-77
2022/08/03 07:57:15;;;;;;;10.67;8.70;;;22.70;99.90;;;;;;5111978;28;20059;-78
2022/08/03 07:59:41;;;;;;;9.50;7.70;;;22.80;99.90;;;;;;5112982;28;20069;-78
2022/08/03 08:02:07;;;;;;;9.77;7.90;;;22.80;99.90;;;;;;5112870;28;20443;-78
2022/08/03 08:04:32;;;;;;;10.30;8.40;;;22.90;99.90;;;;;;5113145;28;20035;-77
2022/08/03 08:06:58;;;;;;;10.17;8.90;;;23.00;99.90;;;;;;5114327;28;20031;-78
2022/08/03 08:09:24;;;;;;;13.27;8.67;;;23.20;99.90;;;;;;5113163;28;20040;-77
2022/08/03 08:11:49;;;;;;;8.98;8.07;;;23.40;99.90;;;;;;5114453;28;20143;-78
2022/08/03 08:14:15;;;;;;;9.07;8.10;;;23.50;99.90;;;;;;5114354;28;20119;-78
2022/08/03 08:16:41;;;;;;;13.80;8.07;;;23.50;99.90;;;;;;5114379;28;20091;-78
2022/08/03 08:19:07;;;;;;;9.27;7.60;;;23.50;99.90;;;;;;5114555;28;20036;-77
2022/08/03 08:21:33;;;;;;;9.75;7.95;;;23.60;99.90;;;;;;5114150;28;20031;-77
2022/08/03 08:23:59;;;;;;;10.33;7.90;;;23.70;99.90;;;;;;5114296;28;20092;-77
2022/08/03 08:26:24;;;;;;;9.18;7.80;;;23.80;99.90;;;;;;5112825;28;20374;-77
2022/08/03 08:28:51;;;;;;;8.23;7.30;;;23.90;99.90;;;;;;5114344;28;20534;-77
2022/08/03 08:31:16;;;;;;;;;;;24.00;99.90;;;;;;5113023;28;20031;-77
2022/08/03 08:33:42;;;;;;;11.05;7.85;;;24.10;99.90;;;;;;5114097;28;20282;-78
2022/08/03 08:36:07;;;;;;;9.83;8.03;;;24.20;99.90;;;;;;5112628;28;20024;-76
2022/08/03 08:38:34;;;;;;;12.37;7.33;;;24.30;99.90;;;;;;5114143;28;20039;-78
2022/08/03 08:41:00;;;;;;;12.82;7.85;;;24.40;99.90;;;;;;5114061;28;20054;-79
2022/08/03 08:43:26;;;;;;;12.57;8.37;;;24.40;99.90;;;;;;5114061;28;20071;-79
2022/08/03 08:45:54;;;;;;;9.27;7.72;;;24.50;99.90;;;;;;5113892;28;20091;-78
2022/08/03 08:48:25;;;;;;;8.60;7.63;;;24.40;99.90;;;;;;5113936;28;20092;-78
2022/08/03 08:50:55;;;;;;;11.43;8.35;;;24.20;99.90;;;;;;5113837;28;20235;-77
2022/08/03 08:53:25;;;;;;;9.65;8.00;;;24.00;99.90;;;;;;5113577;28;20035;-78
2022/08/03 08:55:53;;;;;;;11.25;7.78;;;23.80;99.90;;;;;;5113080;28;20139;-65
2022/08/03 08:58:21;;;;;;;8.88;7.97;;;23.70;99.90;;;;;;5101552;28;20036;-65
2022/08/03 09:00:47;;;;;;;9.10;8.20;;;23.60;99.90;;;;;;5091916;28;20459;-67
2022/08/03 09:03:13;;;;;;;11.50;8.55;;;23.80;99.90;;;;;;5103093;28;20062;-67
2022/08/03 09:05:42;;;;;;;9.38;8.32;;;24.40;99.90;;;;;;5111643;28;20115;-67
2022/08/03 09:08:07;;;;;;;10.75;8.18;;;24.10;99.90;;;;;;5112588;28;20075;-68
2022/08/03 09:10:34;;;;;;;10.23;7.70;;;24.30;99.90;;;;;;5100692;28;20525;-68
2022/08/03 09:12:59;;;;;;;12.15;8.35;;;24.60;99.90;;;;;;5093368;28;20028;-68
2022/08/03 09:15:31;;;;;;;11.20;7.47;;;24.70;99.90;;;;;;5092672;28;20476;-69
2022/08/03 09:17:59;;;;;;;11.82;7.60;;;24.70;99.90;;;;;;5095476;28;20298;-66
2022/08/03 09:20:28;;;;;;;8.65;7.72;;;24.60;99.90;;;;;;5113047;28;20440;-67
2022/08/03 09:22:55;;;;;;;9.55;7.40;;;24.50;99.90;;;;;;5111373;28;20039;-66
2022/08/03 09:25:47;;;;;;;9.20;8.30;;;24.30;99.90;;;;;;5112883;28;20094;-66
2022/08/03 09:28:16;;;;;;;10.50;7.85;;;24.00;99.90;;;;;;5109189;28;20067;-68
2022/08/03 09:30:58;;;;;;;9.70;8.57;;;23.80;99.90;;;;;;5112842;28;20027;-67
2022/08/03 09:33:24;;;;;;;9.20;8.07;;;23.60;99.90;;;;;;5112595;28;20027;-67
2022/08/03 09:35:49;;;;;;;10.17;8.47;;;23.40;99.90;;;;;;5108128;28;20390;-66
2022/08/03 09:38:16;;;;;;;9.40;8.43;;;23.20;99.90;;;;;;5101437;28;20020;-67
2022/08/03 09:40:43;;;;;;;11.55;8.60;;;23.10;99.90;;;;;;5101361;28;20016;-67
2022/08/03 09:43:09;;;;;;;10.90;8.57;;;23.00;99.90;;;;;;5102579;28;20451;-68
2022/08/03 09:45:36;;;;;;;9.77;7.60;;;23.10;99.90;;;;;;5102230;28;20020;-67
2022/08/03 09:48:20;;;;;;;;;;;23.20;99.90;;;;;;5100951;28;20036;-68
2022/08/03 09:50:54;;;;;;;10.32;7.65;;;23.10;99.90;;;;;;5103123;28;19904;-68
2022/08/03 09:53:21;;;;;;;10.13;8.18;;;23.10;99.90;;;;;;5092561;28;20036;-66
2022/08/03 09:55:55;;;;;;;10.57;8.20;;;23.00;99.90;;;;;;5092156;28;20068;-67
2022/08/03 09:58:22;;;;;;;8.60;7.70;;;22.70;99.90;;;;;;5090356;28;20044;-65
2022/08/03 10:00:58;;;;;;;10.63;8.73;;;22.60;99.90;;;;;;5102122;28;20455;-68
2022/08/03 10:03:26;;;;;;;13.02;9.13;;;22.40;99.90;;;;;;5105701;28;20042;-68
2022/08/03 10:05:52;;;;;;;10.60;8.50;;;22.30;99.90;;;;;;5112412;28;20098;-67
2022/08/03 10:08:19;;;;;;;11.20;8.63;;;22.20;99.90;;;;;;5112442;28;20499;-67
2022/08/03 10:10:48;;;;;;;10.32;9.00;;;22.20;99.90;;;;;;5111099;28;20034;-67
2022/08/03 10:13:17;;;;;;;12.65;8.68;;;22.20;99.90;;;;;;5112760;28;20470;-67
2022/08/03 10:15:43;;;;;;;11.90;8.80;;;22.20;99.90;;;;;;5112510;28;20111;-66
2022/08/03 10:18:09;;;;;;;12.68;8.85;;;22.20;99.90;;;;;;5110238;28;20028;-67
2022/08/03 10:21:02;;;;;;;10.83;8.07;;;22.30;99.90;;;;;;5111642;28;20387;-68
2022/08/03 10:23:33;;;;;;;11.23;8.70;;;22.40;99.90;;;;;;5110200;28;20499;-67
2022/08/03 10:26:02;;;;;;;11.63;8.40;;;22.40;99.90;;;;;;5111824;28;20028;-67
2022/08/03 10:28:34;;;;;;;12.23;9.13;;;22.50;99.90;;;;;;5111768;28;20251;-67
2022/08/03 10:31:01;;;;;;;11.52;8.90;;;23.10;99.90;;;;;;5110233;28;20119;-67
2022/08/03 10:33:30;;;;;;;9.63;7.38;;;23.70;99.90;;;;;;5111846;28;20031;-67
2022/08/03 10:35:58;;;;;;;10.32;8.07;;;24.40;99.90;;;;;;5110204;28;20058;-68
2022/08/03 10:38:42;;;;;;;9.55;8.00;;;25.00;99.90;;;;;;5111525;28;20039;-67
2022/08/03 10:41:08;;;;;;;9.82;7.57;;;25.70;99.90;;;;;;5111981;28;20026;-67
2022/08/03 10:44:13;;;;;;;9.07;8.13;;;26.20;99.90;;;;;;5112038;28;20036;-68
2022/08/03 10:46:40;;;;;;;8.52;6.85;;;26.70;99.90;;;;;;5100632;28;20103;-68
2022/08/03 10:49:06;;;;;;;8.00;6.40;;;27.10;99.90;;;;;;5091656;28;20043;-69
2022/08/03 10:51:32;;;;;;;;;;;27.40;99.90;;;;;;5090410;28;20149;-67
2022/08/03 10:53:58;;;;;;;7.82;7.05;;;27.60;99.90;;;;;;5089429;28;20229;-67
2022/08/03 10:59:14;;;;;;;8.18;6.97;;;27.10;99.90;;;;;;5090984;28;19942;-67
2022/08/03 11:01:52;;;;;;;7.17;6.47;;;26.80;99.90;;;;;;5096599;28;20518;-68
2022/08/03 11:04:19;;;;;;;9.68;7.30;;;26.40;99.90;;;;;;5111783;28;20039;-69
2022/08/03 11:06:45;;;;;;;8.23;7.43;;;26.00;99.90;;;;;;5111740;28;20050;-67
2022/08/03 11:09:12;;;;;;;8.20;7.30;;;25.70;99.90;;;;;;5110410;28;20066;-68
2022/08/03 11:11:39;;;;;;;9.07;7.30;;;25.30;99.90;;;;;;5111931;28;20070;-67
2022/08/03 11:14:44;;;;;;;8.95;7.93;;;24.90;99.90;;;;;;5110312;28;20052;-66
2022/08/03 11:17:10;;;;;;;8.35;7.35;;;24.60;99.90;;;;;;5105518;28;20122;-67
2022/08/03 11:19:51;;;;;;;9.30;8.23;;;24.30;99.90;;;;;;5111808;28;20115;-67
2022/08/03 11:22:19;;;;;;;8.68;7.25;;;24.00;99.90;;;;;;5109963;28;20475;-66
2022/08/03 11:24:52;;;;;;;11.85;8.00;;;23.90;99.90;;;;;;5111267;28;20637;-66
2022/08/03 11:27:34;;;;;;;10.25;7.82;;;23.70;99.90;;;;;;5111305;28;20020;-66
2022/08/03 11:30:24;;;;;;;8.38;7.53;;;23.80;99.90;;;;;;5109846;28;20036;-67
2022/08/03 11:32:51;;;;;;;8.77;7.30;;;24.30;99.90;;;;;;5111404;28;20040;-66
2022/08/03 11:35:21;;;;;;;12.00;8.85;;;25.10;99.90;;;;;;5111157;28;20030;-68
2022/08/03 11:37:52;;;;;;;8.80;7.50;;;25.80;99.90;;;;;;5110942;28;20093;-67
2022/08/03 11:40:45;;;;;;;8.75;6.90;;;26.40;99.90;;;;;;5110987;28;20487;-66
2022/08/03 11:43:29;;;;;;;7.50;6.70;;;26.90;99.90;;;;;;5111391;28;20104;-66
2022/08/03 11:46:02;;;;;;;9.07;7.03;;;27.10;99.90;;;;;;5111788;28;20483;-67
2022/08/03 11:48:32;;;;;;;9.55;6.85;;;27.10;99.90;;;;;;5111690;28;20043;-67
2022/08/03 11:51:03;;;;;;;10.80;7.70;;;26.80;99.90;;;;;;5109853;28;20039;-67
2022/08/03 11:53:30;;;;;;;8.18;6.82;;;26.70;99.90;;;;;;5111504;28;20365;-68
2022/08/03 11:55:58;;;;;;;8.80;7.00;;;26.80;99.90;;;;;;5111897;28;20044;-68
2022/08/03 11:58:25;;;;;;;11.32;7.30;;;26.90;99.90;;;;;;5109788;28;20039;-68
2022/08/03 12:00:51;;;;;;;14.05;12.50;;;27.10;99.90;;;;;;5111637;28;20032;-67
2022/08/03 12:03:19;;;;;;;8.13;6.75;;;27.20;99.90;;;;;;5110300;28;20058;-66
2022/08/03 12:05:52;;;;;;;7.72;6.93;;;27.30;99.90;;;;;;5111324;28;20030;-67
2022/08/03 12:08:26;;;;;;;9.13;7.32;;;27.20;99.90;;;;;;5091179;28;20078;-70
2022/08/03 12:10:56;;;;;;;9.13;7.40;;;26.90;99.90;;;;;;5108569;28;20411;-66
2022/08/03 12:13:22;;;;;;;7.72;6.68;;;26.60;99.90;;;;;;5111226;28;20345;-66
2022/08/03 12:15:57;;;;;;;8.35;7.35;;;26.20;99.90;;;;;;5111010;28;20516;-67
2022/08/03 12:18:24;;;;;;;9.98;7.43;;;25.70;99.90;;;;;;5109317;28;20562;-68
2022/08/03 12:20:51;;;;;;;9.93;7.85;;;25.20;99.90;;;;;;5111032;28;20448;-67
2022/08/03 12:23:18;;;;;;;8.75;7.35;;;24.80;99.90;;;;;;5110842;28;20028;-68
2022/08/03 12:25:45;;;;;;;8.00;6.78;;;24.50;99.90;;;;;;5109470;28;20027;-66
2022/08/03 12:28:15;;;;;;;10.95;7.50;;;24.20;99.90;;;;;;5110619;28;20046;-66
2022/08/03 12:30:41;;;;;;;9.05;7.78;;;23.90;99.90;;;;;;5110694;28;20045;-65
2022/08/03 12:33:26;;;;;;;8.35;6.90;;;23.60;99.90;;;;;;5109154;28;20024;-67
2022/08/03 12:36:03;;;;;;;10.02;7.90;;;23.20;99.90;;;;;;5110626;28;20027;-67
2022/08/03 12:38:30;;;;;;;;;;;23.10;99.90;;;;;;5111023;28;20119;-67
2022/08/03 12:41:14;;;;;;;8.57;6.77;;;23.00;99.90;;;;;;5110610;28;19903;-65
2022/08/03 12:43:48;;;;;;;9.30;7.63;;;22.90;99.90;;;;;;5112861;28;20283;-64
2022/08/03 12:46:15;;;;;;;8.80;7.63;;;23.00;99.90;;;;;;5114298;28;20028;-66
2022/08/03 12:49:10;;;;;;;9.52;8.45;;;23.10;99.90;;;;;;5114192;27;20116;-66
2022/08/03 12:51:41;;;;;;;10.02;7.97;;;23.40;99.90;;;;;;5114279;28;20084;-66
2022/08/03 12:54:07;;;;;;;8.82;7.93;;;23.60;99.90;;;;;;5112558;28;20109;-64
2022/08/03 12:56:34;;;;;;;12.02;7.85;;;23.80;99.90;;;;;;5114292;28;20697;-63
2022/08/03 12:59:00;;;;;;;11.75;8.45;;;24.00;99.90;;;;;;5114377;28;20119;-64
2022/08/03 13:01:34;;;;;;;11.25;8.48;;;24.00;99.90;;;;;;5113749;28;20022;-64